Time;durP1;ratioP1;P1;durP2;ratioP2;P2;SDS_P1;SDS_P2;PMS_P1;PMS_P2;Temp;Humidity;BMP_temperature;BMP_pressure;BME280_temperature;BME280_humidity;BME280_pressure;Samples;Min_cycle;Max_cycle;Signal;HPM_P1;HPM_P2
2022/11/12 00:01:57;;;;;;;8.70;3.42;;;;;;;5.18;100.00;101994.56;5054159;28;20025;-82
2022/11/12 00:04:22;;;;;;;2.80;2.63;;;;;;;5.16;100.00;102011.16;5054114;28;20033;-82
2022/11/12 00:06:48;;;;;;;5.07;2.25;;;;;;;5.13;100.00;102016.84;5052823;28;20028;-82
2022/11/12 00:09:13;;;;;;;4.20;3.67;;;;;;;5.08;100.00;102003.09;5054548;28;20029;-82
2022/11/12 00:11:39;;;;;;;2.42;2.25;;;;;;;5.07;100.00;102012.81;5053047;28;20485;-82
2022/11/12 00:14:04;;;;;;;2.17;2.08;;;;;;;5.05;100.00;102012.44;5053103;28;20104;-82
2022/11/12 00:16:29;;;;;;;2.83;1.95;;;;;;;5.04;100.00;102017.31;5053996;28;20458;-83
2022/11/12 00:18:55;;;;;;;3.95;2.85;;;;;;;5.03;100.00;102023.38;5053938;28;20037;-82
2022/11/12 00:21:20;;;;;;;1.88;1.77;;;;;;;5.03;100.00;102026.19;5052618;28;20505;-83
2022/11/12 00:23:46;;;;;;;1.42;1.33;;;;;;;5.01;100.00;102020.13;5053908;28;20033;-82
2022/11/12 00:26:11;;;;;;;2.10;1.83;;;;;;;4.94;100.00;102021.81;5053837;28;20029;-82
2022/11/12 00:28:36;;;;;;;2.33;0.70;;;;;;;4.96;100.00;102024.19;5035995;28;20027;-82
2022/11/12 00:31:10;;;;;;;1.88;1.77;;;;;;;4.86;100.00;102017.38;5054082;28;20017;-83
2022/11/12 00:33:38;;;;;;;7.88;2.03;;;;;;;4.90;100.00;102029.50;5053832;28;20025;-83
2022/11/12 00:36:04;;;;;;;2.80;2.53;;;;;;;4.88;100.00;102022.63;5053640;28;20029;-82
2022/11/12 00:38:30;;;;;;;3.00;2.30;;;;;;;4.86;100.00;102023.03;5052569;28;20408;-82
2022/11/12 00:40:58;;;;;;;3.15;2.03;;;;;;;4.81;100.00;102022.66;5053446;28;20071;-82
2022/11/12 00:43:24;;;;;;;2.85;2.00;;;;;;;4.78;100.00;102017.81;5054956;28;20473;-82
2022/11/12 00:45:49;;;;;;;7.53;4.75;;;;;;;4.79;100.00;102028.75;5056866;28;20035;-83
2022/11/12 00:48:15;;;;;;;1.50;1.48;;;;;;;4.73;100.00;102024.72;5054625;28;20031;-82
2022/11/12 00:50:40;;;;;;;2.55;2.45;;;;;;;4.70;100.00;102027.56;5053775;28;20036;-82
2022/11/12 00:53:05;;;;;;;5.32;3.17;;;;;;;4.71;100.00;102040.53;5054380;28;20029;-81
2022/11/12 00:55:31;;;;;;;2.05;1.85;;;;;;;4.68;100.00;102036.47;5052440;28;20485;-81
2022/11/12 00:57:59;;;;;;;3.28;3.08;;;;;;;4.67;100.00;102032.00;5053613;28;20024;-82
2022/11/12 01:00:25;;;;;;;2.05;1.90;;;;;;;4.67;100.00;102036.88;5053533;28;20067;-82
2022/11/12 01:02:51;;;;;;;1.42;1.10;;;;;;;4.61;100.00;102024.38;5052022;28;20108;-82
2022/11/12 01:05:17;;;;;;;3.45;2.05;;;;;;;4.65;100.00;102030.81;5052849;28;20037;-81
2022/11/12 01:07:43;;;;;;;7.50;3.33;;;;;;;4.62;100.00;102034.47;5053436;28;20039;-81
2022/11/12 01:10:09;;;;;;;1.83;0.95;;;;;;;4.63;100.00;102036.88;5053334;28;20060;-83
2022/11/12 01:12:35;;;;;;;2.28;2.03;;;;;;;4.62;100.00;102034.47;5051651;28;20025;-82
2022/11/12 01:15:01;;;;;;;1.90;1.50;;;;;;;4.59;100.00;102027.59;5052029;28;20056;-82
2022/11/12 01:17:26;;;;;;;1.52;0.93;;;;;;;4.58;100.00;102030.84;5035389;28;20052;-82
2022/11/12 01:19:52;;;;;;;2.45;1.35;;;;;;;4.56;100.00;102024.78;5053044;28;20374;-83
2022/11/12 01:22:17;;;;;;;1.13;1.08;;;;;;;4.40;100.00;101991.28;5052300;28;20021;-81
2022/11/12 01:24:42;;;;;;;2.13;2.00;;;;;;;4.53;100.00;102022.75;5053094;28;20470;-82
2022/11/12 01:27:08;;;;;;;1.48;1.38;;;;;;;4.49;100.00;102026.41;5052445;28;20069;-82
2022/11/12 01:29:33;;;;;;;3.72;1.42;;;;;;;4.50;100.00;102028.03;5053263;28;20033;-82
2022/11/12 01:31:58;;;;;;;2.72;1.67;;;;;;;4.50;100.00;102021.56;5053130;28;20485;-82
2022/11/12 01:34:24;;;;;;;1.25;1.13;;;;;;;4.47;100.00;102025.19;5053340;28;20017;-82
2022/11/12 01:36:50;;;;;;;1.23;1.23;;;;;;;4.49;100.00;102029.25;5053599;28;20021;-81
2022/11/12 01:39:15;;;;;;;1.50;1.42;;;;;;;4.48;100.00;102018.34;5052920;28;20033;-82
2022/11/12 01:41:41;;;;;;;1.98;0.95;;;;;;;4.48;100.00;102026.81;5052184;28;20036;-81
2022/11/12 01:44:12;;;;;;;3.08;2.83;;;;;;;4.47;100.00;102019.53;5051809;28;20017;-82
2022/11/12 01:46:50;;;;;;;1.00;1.00;;;;;;;4.47;100.00;102022.38;5051789;28;20377;-82
2022/11/12 01:49:39;;;;;;;0.88;0.82;;;;;;;4.46;100.00;102029.28;5052826;28;20044;-82
2022/11/12 01:52:13;;;;;;;5.05;2.45;;;;;;;4.41;100.00;102024.03;5051737;28;20536;-82
2022/11/12 01:54:38;;;;;;;2.05;1.95;;;;;;;4.42;100.00;102019.97;5051739;28;20068;-82
2022/11/12 01:57:05;;;;;;;0.57;0.57;;;;;;;4.43;100.00;102028.06;5035053;28;20061;-82
2022/11/12 01:59:37;;;;;;;1.42;1.33;;;;;;;4.43;100.00;102021.59;5051576;28;20048;-82
2022/11/12 02:02:02;;;;;;;2.03;0.57;;;;;;;4.42;100.00;102022.78;5051496;28;20036;-81
2022/11/12 02:04:28;;;;;;;11.77;2.55;;;;;;;4.36;100.00;102018.78;5052839;28;20037;-81
2022/11/12 02:06:55;;;;;;;1.40;0.63;;;;;;;4.37;100.00;102018.34;5051642;28;20029;-81
2022/11/12 02:09:20;;;;;;;0.73;0.73;;;;;;;4.40;100.00;102014.72;5052782;28;20470;-82
2022/11/12 02:11:46;;;;;;;2.58;2.45;;;;;;;4.39;100.00;102012.28;5051420;28;20028;-82
2022/11/12 02:14:11;;;;;;;0.88;0.88;;;;;;;4.37;100.00;102006.22;5051241;28;20036;-82
2022/11/12 02:16:39;;;;;;;1.35;1.35;;;;;;;4.34;100.00;102016.34;5053195;28;20029;-82
2022/11/12 02:19:09;;;;;;;3.58;2.63;;;;;;;4.34;100.00;102010.69;5055276;28;20091;-81
2022/11/12 02:21:35;;;;;;;1.55;1.20;;;;;;;4.29;100.00;102001.81;5056045;28;20025;-81
2022/11/12 02:24:05;;;;;;;1.50;1.40;;;;;;;4.31;100.00;102007.88;5056166;28;20083;-81
2022/11/12 02:26:33;;;;;;;1.90;1.08;;;;;;;4.31;100.00;102005.06;5056017;28;20031;-81
2022/11/12 02:28:59;;;;;;;0.50;0.50;;;;;;;4.29;100.00;102010.31;5055017;28;20025;-82
2022/11/12 02:31:24;;;;;;;3.22;2.33;;;;;;;4.29;100.00;102010.31;5056037;28;20021;-81
2022/11/12 02:33:50;;;;;;;1.95;1.85;;;;;;;4.27;100.00;102012.72;5055920;28;20025;-83
2022/11/12 02:36:15;;;;;;;0.85;0.85;;;;;;;4.26;100.00;102017.59;5055719;28;20040;-82
2022/11/12 02:38:41;;;;;;;1.80;1.73;;;;;;;4.19;100.00;102003.44;5054685;28;20029;-82
2022/11/12 02:41:06;;;;;;;2.05;1.20;;;;;;;4.23;100.00;102014.75;5054009;28;20045;-82
2022/11/12 02:43:32;;;;;;;0.30;0.30;;;;;;;4.21;100.00;102011.53;5055755;28;20380;-82
2022/11/12 02:45:57;;;;;;;1.40;0.90;;;;;;;4.26;100.00;102019.63;5054419;28;20024;-81
2022/11/12 02:48:22;;;;;;;0.47;0.47;;;;;;;4.28;100.00;102015.16;5054693;28;20127;-82
2022/11/12 02:50:48;;;;;;;1.65;1.55;;;;;;;4.29;100.00;102019.59;5054291;28;20069;-82
2022/11/12 02:53:13;;;;;;;1.08;0.35;;;;;;;4.31;100.00;101999.41;5055596;28;20032;-82
2022/11/12 02:55:38;;;;;;;3.60;1.70;;;;;;;4.29;100.00;102005.44;5054244;28;20469;-82
2022/11/12 02:58:04;;;;;;;0.40;0.40;;;;;;;4.29;100.00;102001.81;5055623;28;20029;-81
2022/11/12 03:00:29;;;;;;;1.27;0.82;;;;;;;4.29;100.00;101999.78;5055285;28;20035;-81
2022/11/12 03:02:57;;;;;;;0.57;0.57;;;;;;;4.30;100.00;102003.44;5055799;28;20036;-82
2022/11/12 03:05:24;;;;;;;0.68;0.68;;;;;;;4.31;100.00;102002.22;5055455;28;20029;-82
2022/11/12 03:07:50;;;;;;;2.80;2.53;;;;;;;4.29;100.00;101996.97;5055564;28;20082;-82
2022/11/12 03:10:15;;;;;;;0.52;0.52;;;;;;;4.32;100.00;102001.78;5054053;28;20032;-82
2022/11/12 03:12:40;;;;;;;0.60;0.60;;;;;;;4.35;100.00;102003.00;5055499;28;20025;-81
2022/11/12 03:15:06;;;;;;;1.30;0.45;;;;;;;4.37;100.00;102006.22;5055245;28;20094;-82
2022/11/12 03:17:33;;;;;;;2.72;1.08;;;;;;;4.33;100.00;101997.75;5055540;28;20025;-82
2022/11/12 03:19:59;;;;;;;0.90;0.70;;;;;;;4.41;100.00;102001.38;5055361;28;20025;-83
2022/11/12 03:22:24;;;;;;;2.00;1.75;;;;;;;4.40;100.00;101994.09;5055334;28;20021;-82
2022/11/12 03:24:49;;;;;;;4.40;0.50;;;;;;;4.47;100.00;102011.88;5054872;28;20527;-81
2022/11/12 03:27:15;;;;;;;1.75;1.40;;;;;;;4.51;100.00;101998.50;5054533;28;20032;-83
2022/11/12 03:29:40;;;;;;;1.15;0.60;;;;;;;4.49;100.00;101991.66;5055026;28;20020;-81
2022/11/12 03:32:06;;;;;;;0.57;0.57;;;;;;;4.59;100.00;102001.31;5054901;28;20052;-81
2022/11/12 03:34:31;;;;;;;1.20;1.20;;;;;;;4.60;100.00;101998.09;5053548;28;20082;-81
2022/11/12 03:36:56;;;;;;;1.35;1.25;;;;;;;4.62;100.00;102000.47;5054898;28;20025;-82
2022/11/12 03:39:22;;;;;;;4.00;3.67;;;;;;;4.65;100.00;102009.00;5054569;28;20104;-81
2022/11/12 03:41:47;;;;;;;6.28;0.40;;;;;;;4.63;100.00;101999.28;5054703;28;20371;-81
2022/11/12 03:44:14;;;;;;;0.17;0.17;;;;;;;4.68;100.00;102002.50;5053456;28;20021;-82
2022/11/12 03:46:40;;;;;;;0.30;0.30;;;;;;;4.68;100.00;102007.34;5053373;28;20130;-81
2022/11/12 03:49:05;;;;;;;1.25;0.45;;;;;;;4.70;100.00;102013.41;5053542;28;20036;-82
2022/11/12 03:51:31;;;;;;;0.45;0.45;;;;;;;4.70;100.00;102011.41;5054666;28;20112;-82
2022/11/12 03:53:56;;;;;;;1.88;1.77;;;;;;;4.69;100.00;102009.78;5053224;28;20029;-82
2022/11/12 03:56:21;;;;;;;0.10;0.10;;;;;;;4.72;100.00;102002.47;5053194;28;20024;-81
2022/11/12 03:58:47;;;;;;;0.52;0.52;;;;;;;4.72;100.00;102003.28;5054294;28;20470;-81
2022/11/12 04:01:12;;;;;;;0.60;0.60;;;;;;;4.72;100.00;102008.13;5054409;28;20075;-82
2022/11/12 04:03:37;;;;;;;0.75;0.40;;;;;;;4.71;100.00;102007.31;5053074;28;20469;-82
2022/11/12 04:08:47;;;;;;;2.72;0.47;;;;;;;4.64;100.00;101995.22;5054041;28;20103;-82
2022/11/12 04:11:14;;;;;;;0.15;0.15;;;;;;;4.66;100.00;102004.91;5054221;28;20450;-82
2022/11/12 04:13:41;;;;;;;1.08;1.08;;;;;;;4.60;100.00;102000.91;5052772;28;20036;-81
2022/11/12 04:21:55;;;;;;;3.45;1.23;;;;;;;4.59;100.00;102007.78;5054380;28;20140;-82
2022/11/12 04:27:10;;;;;;;0.65;0.65;;;;;;;4.56;100.00;102010.63;5060589;28;20002;-81
2022/11/12 04:32:19;;;;;;;0.40;0.40;;;;;;;4.45;100.00;101999.34;5053337;28;20097;-77
2022/11/12 04:34:45;;;;;;;0.55;0.55;;;;;;;4.46;100.00;102007.41;5053942;28;20428;-77
2022/11/12 04:37:10;;;;;;;5.47;1.40;;;;;;;4.39;100.00;102000.97;5052479;28;20056;-78
2022/11/12 04:39:36;;;;;;;2.53;2.35;;;;;;;4.40;100.00;102008.25;5052496;28;20426;-78
2022/11/12 04:47:32;;;;;;;2.38;2.17;;;;;;;4.31;100.00;101999.41;5053593;28;20029;-78
2022/11/12 04:49:58;;;;;;;0.20;0.20;;;;;;;4.20;100.00;101990.13;5053490;28;20470;-78
2022/11/12 04:52:24;;;;;;;1.17;1.17;;;;;;;4.23;100.00;102003.44;5053288;28;20374;-78
2022/11/12 04:54:50;;;;;;;0.47;0.47;;;;;;;4.19;100.00;102006.28;5054123;28;20025;-78
2022/11/12 04:57:15;;;;;;;0.93;0.65;;;;;;;4.17;100.00;102007.91;5053875;28;20192;-78
2022/11/12 04:59:41;;;;;;;1.33;1.23;;;;;;;4.14;100.00;102006.69;5053379;28;20114;-78
2022/11/12 05:02:06;;;;;;;0.52;0.52;;;;;;;4.11;100.00;102004.69;5053479;28;20104;-78
2022/11/12 05:04:32;;;;;;;1.30;1.27;;;;;;;4.10;100.00;102016.41;5053371;28;20359;-78
2022/11/12 05:06:58;;;;;;;0.90;0.90;;;;;;;4.08;100.00;102019.63;5053096;28;20484;-78
2022/11/12 05:09:26;;;;;;;0.10;0.10;;;;;;;4.05;100.00;102021.25;5053577;28;20028;-78
2022/11/12 05:11:52;;;;;;;1.05;1.02;;;;;;;4.03;100.00;102022.88;5035407;28;20021;-78
2022/11/12 05:14:18;;;;;;;8.60;1.13;;;;;;;4.02;100.00;102026.91;5052076;28;20029;-78
2022/11/12 05:16:43;;;;;;;1.23;0.68;;;;;;;4.00;100.00;102032.16;5053278;28;20374;-78
2022/11/12 05:19:09;;;;;;;0.73;0.73;;;;;;;3.96;100.00;102032.19;5052068;28;20055;-78
2022/11/12 05:24:18;;;;;;;3.78;1.27;;;;;;;3.94;100.00;102022.47;5052560;28;20488;-78
2022/11/12 05:26:43;;;;;;;1.95;1.85;;;;;;;3.92;100.00;102027.75;5053182;28;20029;-79
2022/11/12 05:29:09;;;;;;;0.95;0.95;;;;;;;3.87;100.00;102033.81;5053577;28;20078;-78
2022/11/12 05:31:34;;;;;;;5.30;1.17;;;;;;;3.85;100.00;102039.81;5053087;28;20469;-78
2022/11/12 05:34:00;;;;;;;1.60;1.50;;;;;;;3.80;100.00;102045.88;5051534;28;20037;-77
2022/11/12 05:36:25;;;;;;;0.20;0.20;;;;;;;3.75;100.00;102045.47;5053311;28;20032;-77
2022/11/12 05:38:50;;;;;;;0.20;0.20;;;;;;;3.72;100.00;102037.81;5035189;28;20101;-77
2022/11/12 05:41:16;;;;;;;0.20;0.20;;;;;;;3.69;100.00;102036.59;5034905;28;20106;-78
2022/11/12 05:43:41;;;;;;;0.60;0.60;;;;;;;3.67;100.00;102035.38;5053035;28;20029;-78
2022/11/12 05:46:07;;;;;;;0.10;0.10;;;;;;;3.64;100.00;102042.63;5052956;28;20382;-79
2022/11/12 05:48:32;;;;;;;0.40;0.40;;;;;;;3.56;100.00;102039.00;5053000;28;20057;-77
2022/11/12 05:50:58;;;;;;;1.35;1.35;;;;;;;3.58;100.00;102047.06;5055296;28;20044;-79
2022/11/12 05:53:23;;;;;;;5.38;2.38;;;;;;;3.48;100.00;102045.84;5056954;28;20455;-79
2022/11/12 05:55:48;;;;;;;1.05;1.05;;;;;;;3.51;100.00;102058.38;5056727;28;20028;-79
2022/11/12 05:58:14;;;;;;;1.33;1.33;;;;;;;3.43;100.00;102043.41;5056905;28;20433;-78
2022/11/12 06:00:40;;;;;;;0.20;0.20;;;;;;;3.46;100.00;102058.78;5055690;28;20036;-78
2022/11/12 06:03:10;;;;;;;1.38;0.43;;;;;;;3.45;100.00;102048.66;5056488;28;20028;-79
2022/11/12 06:05:36;;;;;;;0.93;0.93;;;;;;;3.41;100.00;102056.34;5056898;28;20457;-78
2022/11/12 06:08:04;;;;;;;3.42;1.75;;;;;;;3.35;100.00;102046.63;5055563;28;20033;-78
2022/11/12 06:10:30;;;;;;;0.10;0.10;;;;;;;3.38;100.00;102066.41;5056523;28;20060;-78
2022/11/12 06:12:56;;;;;;;0.10;0.10;;;;;;;3.33;100.00;102061.16;5056513;28;20029;-78
2022/11/12 06:15:25;;;;;;;0.45;0.45;;;;;;;3.36;100.00;102068.84;5056045;28;20464;-78
2022/11/12 06:17:51;;;;;;;0.52;0.52;;;;;;;3.37;100.00;102070.47;5054903;28;20491;-78
2022/11/12 06:20:17;;;;;;;2.78;0.68;;;;;;;3.31;100.00;102063.59;5056553;28;20033;-79
2022/11/12 06:22:42;;;;;;;0.00;0.00;;;;;;;3.36;100.00;102074.50;5056450;28;20033;-77
2022/11/12 06:25:07;;;;;;;0.22;0.22;;;;;;;3.37;100.00;102078.94;5054877;28;20424;-78
2022/11/12 06:27:33;;;;;;;0.40;0.40;;;;;;;3.39;100.00;102072.88;5056080;28;20035;-78
2022/11/12 06:29:58;;;;;;;1.75;1.65;;;;;;;3.39;100.00;102073.69;5055021;28;20115;-79
2022/11/12 06:32:24;;;;;;;0.17;0.17;;;;;;;3.27;100.00;102054.28;5055849;28;20059;-79
2022/11/12 06:34:51;;;;;;;1.88;1.50;;;;;;;3.40;100.00;102075.31;5054758;28;20111;-79
2022/11/12 06:37:17;;;;;;;1.05;0.52;;;;;;;3.46;100.00;102085.00;5038317;28;20021;-79
2022/11/12 06:39:42;;;;;;;1.08;0.55;;;;;;;3.46;100.00;102081.38;5055905;28;20044;-78
2022/11/12 06:42:07;;;;;;;0.98;0.90;;;;;;;3.47;100.00;102075.34;5055677;28;20421;-79
2022/11/12 06:44:33;;;;;;;0.57;0.50;;;;;;;3.47;100.00;102080.16;5055823;28;20033;-78
2022/11/12 06:46:58;;;;;;;1.70;0.95;;;;;;;3.49;100.00;102080.56;5055506;28;20029;-78
2022/11/12 06:49:24;;;;;;;1.35;1.35;;;;;;;3.49;100.00;102077.72;5055613;28;20492;-78
2022/11/12 06:51:50;;;;;;;0.73;0.73;;;;;;;3.50;100.00;102085.81;5055685;28;20031;-77
2022/11/12 06:54:15;;;;;;;0.20;0.20;;;;;;;3.54;100.00;102086.63;5055954;28;20024;-78
2022/11/12 06:56:41;;;;;;;1.02;0.77;;;;;;;3.54;100.00;102080.97;5055610;28;20134;-78
2022/11/12 06:59:06;;;;;;;0.40;0.40;;;;;;;3.63;100.00;102095.53;5055492;28;20373;-79
2022/11/12 07:01:32;;;;;;;1.08;1.08;;;;;;;3.68;100.00;102093.50;5054826;28;20036;-79
2022/11/12 07:03:57;;;;;;;0.80;0.80;;;;;;;3.72;100.00;102097.97;5054121;28;20102;-79
2022/11/12 07:06:23;;;;;;;0.50;0.50;;;;;;;3.78;100.00;102098.38;5055865;28;20024;-79
2022/11/12 07:08:49;;;;;;;2.92;0.73;;;;;;;3.83;100.00;102095.16;5055679;28;20458;-78
2022/11/12 07:11:16;;;;;;;0.85;0.85;;;;;;;3.88;100.00;102101.25;5054375;28;20098;-78
2022/11/12 07:13:45;;;;;;;1.00;1.00;;;;;;;3.94;100.00;102096.00;5054368;28;20033;-79
2022/11/12 07:16:12;;;;;;;7.40;0.98;;;;;;;3.99;100.00;102109.75;5055308;28;20074;-79
2022/11/12 07:18:38;;;;;;;1.98;1.10;;;;;;;4.06;100.00;102104.09;5055804;28;20089;-79
2022/11/12 07:21:06;;;;;;;0.40;0.40;;;;;;;4.13;100.00;102106.91;5053975;28;20432;-78
2022/11/12 07:23:32;;;;;;;0.13;0.13;;;;;;;4.19;100.00;102113.78;5053814;28;20029;-79
2022/11/12 07:26:04;;;;;;;0.20;0.20;;;;;;;4.25;100.00;102114.19;5054014;28;20029;-79
2022/11/12 07:28:29;;;;;;;0.40;0.40;;;;;;;4.29;100.00;102112.97;5054812;28;20031;-78
2022/11/12 07:31:03;;;;;;;0.43;0.43;;;;;;;4.37;100.00;102120.22;5053832;28;20033;-79
2022/11/12 07:33:29;;;;;;;1.95;1.85;;;;;;;4.43;100.00;102115.78;5055128;28;20040;-79
2022/11/12 07:36:12;;;;;;;0.55;0.55;;;;;;;4.53;100.00;102110.50;5055031;28;20029;-78
2022/11/12 07:38:38;;;;;;;0.93;0.93;;;;;;;4.63;100.00;102107.66;5054990;28;20049;-79
2022/11/12 07:41:09;;;;;;;0.95;0.95;;;;;;;4.71;100.00;102100.75;5036485;28;20383;-80
2022/11/12 07:43:36;;;;;;;0.32;0.30;;;;;;;4.83;100.00;102103.16;5055020;28;20028;-79
2022/11/12 07:46:26;;;;;;;0.82;0.82;;;;;;;5.05;100.00;102103.91;5054635;28;20029;-79
2022/11/12 07:48:52;;;;;;;0.60;0.60;;;;;;;5.32;100.00;102092.84;5054229;28;20087;-79
2022/11/12 07:51:25;;;;;;;0.75;0.68;;;;;;;5.60;100.00;102097.53;5054515;28;20025;-78
2022/11/12 07:53:55;;;;;;;2.28;2.17;;;;;;;5.81;100.00;102103.06;5054727;28;20037;-79
2022/11/12 07:56:23;;;;;;;5.35;2.83;;;;;;;5.97;100.00;102094.03;5054438;28;20028;-79
2022/11/12 07:58:49;;;;;;;0.68;0.68;;;;;;;6.08;100.00;102094.78;5054408;28;20056;-79
2022/11/12 08:01:29;;;;;;;2.05;1.10;;;;;;;6.25;100.00;102080.41;5036153;28;20489;-78
2022/11/12 08:03:55;;;;;;;2.72;1.30;;;;;;;6.43;100.00;102085.16;5054779;28;20043;-78
2022/11/12 08:06:20;;;;;;;0.82;0.80;;;;;;;6.58;100.00;102084.56;5054099;28;20463;-79
2022/11/12 08:08:46;;;;;;;1.38;1.10;;;;;;;6.66;100.00;102085.31;5054616;28;20097;-78
2022/11/12 08:11:11;;;;;;;0.30;0.30;;;;;;;6.71;100.00;102089.72;5054605;28;20450;-79
2022/11/12 08:13:36;;;;;;;2.05;1.95;;;;;;;6.72;100.00;102095.00;5054200;28;20120;-78
2022/11/12 08:16:02;;;;;;;0.90;0.90;;;;;;;6.77;100.00;102088.03;5054122;28;20040;-80
2022/11/12 08:18:28;;;;;;;0.20;0.20;;;;;;;6.83;100.00;102089.19;5052937;28;20389;-80
2022/11/12 08:21:05;;;;;;;0.20;0.20;;;;;;;6.88;100.00;102086.66;5053755;28;20476;-79
2022/11/12 08:23:30;;;;;;;0.43;0.30;;;;;;;6.94;100.00;102099.19;5052914;28;20024;-79
2022/11/12 08:26:00;;;;;;;0.43;0.43;;;;;;;6.97;100.00;102091.88;5054242;28;20021;-77
2022/11/12 08:28:27;;;;;;;3.25;0.43;;;;;;;7.07;100.00;102103.13;5053834;28;20087;-79
2022/11/12 08:30:53;;;;;;;11.68;2.25;;;;;;;7.12;100.00;102098.19;5052850;28;20021;-79
2022/11/12 08:33:18;;;;;;;0.60;0.60;;;;;;;7.15;100.00;102100.16;5053723;28;20052;-80
2022/11/12 08:35:44;;;;;;;2.83;1.17;;;;;;;7.25;100.00;102107.75;5054018;28;20462;-78
2022/11/12 08:38:10;;;;;;;0.10;0.10;;;;;;;7.28;100.00;102098.34;5053957;28;20083;-79
2022/11/12 08:40:36;;;;;;;1.77;1.38;;;;;;;7.32;100.00;102107.69;5053417;28;20439;-79
2022/11/12 08:43:08;;;;;;;1.00;0.98;;;;;;;7.31;100.00;102095.50;5053496;28;20060;-78
2022/11/12 08:45:36;;;;;;;0.50;0.50;;;;;;;7.40;100.00;102100.66;5052431;28;20032;-79
2022/11/12 08:48:03;;;;;;;0.82;0.80;;;;;;;7.47;100.00;102101.34;5053564;28;20472;-79
2022/11/12 08:50:29;;;;;;;2.63;1.20;;;;;;;7.48;100.00;102094.44;5053758;28;20478;-80
2022/11/12 08:53:00;;;;;;;0.85;0.85;;;;;;;7.61;100.00;102096.72;5053555;28;20021;-79
2022/11/12 08:55:25;;;;;;;0.57;0.32;;;;;;;7.70;100.00;102088.44;5053708;28;20434;-79
2022/11/12 08:57:50;;;;;;;0.17;0.17;;;;;;;7.76;100.00;102075.34;5052606;28;20107;-79
2022/11/12 09:00:16;;;;;;;1.25;1.15;;;;;;;7.88;100.00;102088.97;5053406;28;20029;-80
2022/11/12 09:02:42;;;;;;;1.27;0.50;;;;;;;7.99;100.00;102089.59;5052352;28;20092;-79
2022/11/12 09:05:07;;;;;;;0.00;0.00;;;;;;;8.07;100.00;102091.09;5053326;28;20090;-79
2022/11/12 09:07:33;;;;;;;9.02;1.65;;;;;;;8.14;100.00;102090.97;5052025;28;20025;-79
2022/11/12 09:09:58;;;;;;;0.63;0.35;;;;;;;8.31;100.00;102089.09;5053265;28;20060;-80
2022/11/12 09:12:23;;;;;;;1.35;1.35;;;;;;;8.37;100.00;102085.31;5053325;28;20575;-79
2022/11/12 09:14:50;;;;;;;0.50;0.50;;;;;;;8.39;100.00;102085.69;5053254;28;20021;-79
2022/11/12 09:17:15;;;;;;;0.28;0.28;;;;;;;8.48;100.00;102087.97;5052146;28;20039;-79
2022/11/12 09:19:41;;;;;;;0.22;0.22;;;;;;;8.58;100.00;102091.88;5053371;28;20104;-79
2022/11/12 09:22:06;;;;;;;0.32;0.32;;;;;;;8.62;100.00;102092.59;5053016;28;20488;-80
2022/11/12 09:24:32;;;;;;;0.85;0.25;;;;;;;8.65;100.00;102092.53;5053289;28;20040;-79
2022/11/12 09:26:57;;;;;;;1.45;1.35;;;;;;;8.72;100.00;102092.41;5055848;28;20480;-79
2022/11/12 09:29:23;;;;;;;0.47;0.47;;;;;;;8.78;100.00;102089.84;5055743;28;20021;-79
2022/11/12 09:31:48;;;;;;;0.73;0.73;;;;;;;8.84;100.00;102090.97;5055776;28;20056;-78
2022/11/12 09:34:13;;;;;;;0.10;0.10;;;;;;;8.89;100.00;102087.59;5057737;28;20078;-79
2022/11/12 09:36:39;;;;;;;0.20;0.10;;;;;;;9.00;100.00;102101.66;5056893;28;20071;-80
2022/11/12 09:39:04;;;;;;;0.22;0.20;;;;;;;9.07;100.00;102101.47;5057105;28;20112;-80
2022/11/12 09:41:30;;;;;;;0.63;0.63;;;;;;;9.14;100.00;102104.19;5056553;28;20056;-80
2022/11/12 09:44:02;;;;;;;1.48;1.20;;;;;;;9.22;100.00;102097.91;5057009;28;20375;-80
2022/11/12 09:46:49;;;;;;;0.55;0.55;;;;;;;9.30;100.00;102098.53;5056073;28;20041;-80
2022/11/12 09:49:28;;;;;;;0.38;0.38;;;;;;;9.36;100.00;102093.94;5056910;28;20029;-80
2022/11/12 09:52:08;;;;;;;0.20;0.20;;;;;;;9.42;100.00;102089.31;5038999;28;20028;-78
2022/11/12 09:54:34;;;;;;;0.13;0.13;;;;;;;9.53;100.00;102086.22;5055640;28;20029;-81
2022/11/12 09:57:00;;;;;;;0.43;0.43;;;;;;;9.52;100.00;102096.84;5055774;28;20025;-78
2022/11/12 09:59:28;;;;;;;0.28;0.28;;;;;;;9.57;100.00;102106.94;5056970;28;20120;-80
2022/11/12 10:02:12;;;;;;;0.73;0.70;;;;;;;9.61;100.00;102101.94;5055455;28;20032;-80
2022/11/12 10:04:50;;;;;;;1.05;1.05;;;;;;;9.69;100.00;102097.69;5056532;28;20436;-79
2022/11/12 10:07:39;;;;;;;0.20;0.20;;;;;;;9.72;100.00;102098.84;5056800;28;20103;-79
2022/11/12 10:10:24;;;;;;;0.77;0.77;;;;;;;9.73;100.00;102086.22;5055369;28;20036;-79
2022/11/12 10:12:55;;;;;;;0.10;0.10;;;;;;;9.79;100.00;102096.66;5039035;28;20048;-79
2022/11/12 10:18:53;;;;;;;1.55;1.45;;;;;;;9.94;100.00;102095.06;5055613;28;20048;-79
2022/11/12 10:21:30;;;;;;;0.70;0.70;;;;;;;10.01;100.00;102082.66;5054805;28;20033;-80
2022/11/12 10:23:57;;;;;;;0.20;0.10;;;;;;;10.11;100.00;102082.41;5056080;28;20481;-80
2022/11/12 10:26:23;;;;;;;0.43;0.43;;;;;;;10.16;100.00;102075.34;5055792;28;20020;-80
2022/11/12 10:28:58;;;;;;;4.28;2.30;;;;;;;10.26;100.00;102090.63;5054634;28;20025;-80
2022/11/12 10:31:26;;;;;;;0.40;0.40;;;;;;;10.34;100.00;102087.13;5054607;28;20021;-78
2022/11/12 10:34:13;;;;;;;0.40;0.32;;;;;;;10.40;100.00;102093.91;5054525;28;20488;-79
2022/11/12 10:37:00;;;;;;;0.10;0.10;;;;;;;10.48;100.00;102077.41;5036548;28;20025;-79
2022/11/12 10:39:45;;;;;;;0.63;0.63;;;;;;;10.54;100.00;102082.09;5055253;28;20119;-79
2022/11/12 10:42:14;;;;;;;0.75;0.43;;;;;;;10.59;100.00;102079.94;5055576;28;20037;-79
2022/11/12 10:44:41;;;;;;;0.80;0.45;;;;;;;10.58;100.00;102076.28;5055548;28;20029;-79
2022/11/12 10:47:24;;;;;;;0.82;0.82;;;;;;;10.57;100.00;102073.88;5055774;28;20025;-80
2022/11/12 10:50:07;;;;;;;0.47;0.47;;;;;;;10.63;100.00;102078.59;5055716;28;20025;-79
2022/11/12 10:52:34;;;;;;;0.77;0.77;;;;;;;10.62;100.00;102073.34;5055562;28;20031;-79
2022/11/12 10:55:15;;;;;;;0.68;0.43;;;;;;;10.57;100.00;102073.88;5055133;28;20032;-79
2022/11/12 10:57:40;;;;;;;0.28;0.28;;;;;;;10.54;100.00;102073.53;5055574;28;20029;-79
2022/11/12 11:00:12;;;;;;;1.08;0.55;;;;;;;10.55;100.00;102080.03;5054154;28;20482;-79
2022/11/12 11:02:46;;;;;;;1.58;0.82;;;;;;;10.54;100.00;102079.22;5053826;28;20040;-79
2022/11/12 11:05:31;;;;;;;1.17;1.08;;;;;;;10.56;100.00;102081.66;5055100;28;20545;-79
2022/11/12 11:07:57;;;;;;;0.60;0.60;;;;;;;10.49;100.00;102071.19;5055303;28;20490;-79
2022/11/12 11:10:29;;;;;;;0.22;0.22;;;;;;;10.51;100.00;102074.44;5053869;28;20033;-78
2022/11/12 11:13:13;;;;;;;;;;;;;;;10.55;100.00;102068.59;5054455;28;20378;-80
2022/11/12 11:15:38;;;;;;;0.50;0.50;;;;;;;10.52;100.00;102067.47;5055073;28;19908;-79
2022/11/12 11:18:04;;;;;;;0.52;0.52;;;;;;;10.59;100.00;102069.31;5054286;28;20537;-80
2022/11/12 11:21:07;;;;;;;0.68;0.68;;;;;;;10.63;100.00;102074.94;5055105;28;20466;-79
2022/11/12 11:23:54;;;;;;;0.30;0.30;;;;;;;10.66;100.00;102076.91;5054963;28;20025;-79
2022/11/12 11:26:51;;;;;;;0.20;0.20;;;;;;;10.70;100.00;102069.03;5053717;28;20021;-79
2022/11/12 11:29:48;;;;;;;2.70;0.85;;;;;;;10.73;100.00;102066.06;5055141;28;20374;-79
2022/11/12 11:32:51;;;;;;;6.32;1.30;;;;;;;10.77;100.00;102072.50;5037106;28;20025;-79
2022/11/12 11:35:16;;;;;;;3.20;0.52;;;;;;;10.80;100.00;102065.88;5055187;28;20029;-78
2022/11/12 11:37:52;;;;;;;2.90;1.95;;;;;;;10.85;100.00;102053.06;5053542;28;20059;-79
2022/11/12 11:41:02;;;;;;;0.10;0.10;;;;;;;10.89;100.00;102050.91;5054481;28;20064;-79
2022/11/12 11:43:35;;;;;;;0.25;0.25;;;;;;;10.94;100.00;102054.03;5052994;28;20148;-79
2022/11/12 11:46:38;;;;;;;0.63;0.20;;;;;;;10.99;100.00;102056.31;5052742;28;20040;-78
2022/11/12 11:49:40;;;;;;;0.35;0.35;;;;;;;11.06;100.00;102045.94;5043316;28;20036;-79
2022/11/12 11:52:20;;;;;;;0.43;0.43;;;;;;;11.11;100.00;102046.22;5054704;28;20070;-79
2022/11/12 11:54:55;;;;;;;0.10;0.10;;;;;;;11.15;100.00;102046.09;5053199;28;20036;-80
2022/11/12 11:57:24;;;;;;;0.45;0.43;;;;;;;11.17;100.00;102041.50;5054347;28;20086;-79